sensor_id;sensor_type;location;lat;lon;timestamp;temperature;humidity
13794;DHT22;31160;49.500;7.772;2024-01-15T00:00:18;-2.70;99.90
13794;DHT22;31160;49.500;7.772;2024-01-15T00:02:44;-2.80;99.90
13794;DHT22;31160;49.500;7.772;2024-01-15T00:05:11;-2.90;99.90
13794;DHT22;31160;49.500;7.772;2024-01-15T00:07:39;-2.80;99.90
13794;DHT22;31160;49.500;7.772;2024-01-15T00:10:06;-2.70;99.90
13794;DHT22;31160;49.500;7.772;2024-01-15T00:12:34;-2.60;99.90
13794;DHT22;31160;49.500;7.772;2024-01-15T00:15:01;-2.60;99.90
13794;DHT22;31160;49.500;7.772;2024-01-15T00:17:28;-2.50;99.90
13794;DHT22;31160;49.500;7.772;2024-01-15T00:19:55;-2.50;99.90
13794;DHT22;31160;49.500;7.772;2024-01-15T00:22:25;-2.60;99.90
13794;DHT22;31160;49.500;7.772;2024-01-15T00:24:51;-2.50;99.90
13794;DHT22;31160;49.500;7.772;2024-01-15T00:27:19;-2.60;99.90
13794;DHT22;31160;49.500;7.772;2024-01-15T00:29:46;-2.50;99.90
13794;DHT22;31160;49.500;7.772;2024-01-15T00:32:14;-2.60;99.90
13794;DHT22;31160;49.500;7.772;2024-01-15T00:34:42;-2.60;99.90
13794;DHT22;31160;49.500;7.772;2024-01-15T00:37:10;-2.60;99.90
13794;DHT22;31160;49.500;7.772;2024-01-15T00:39:38;-2.70;99.90
13794;DHT22;31160;49.500;7.772;2024-01-15T00:42:05;-2.60;99.90
13794;DHT22;31160;49.500;7.772;2024-01-15T00:44:33;-2.80;99.90
13794;DHT22;31160;49.500;7.772;2024-01-15T00:47:00;-2.70;99.90
13794;DHT22;31160;49.500;7.772;2024-01-15T00:49:29;-2.60;99.90
13794;DHT22;31160;49.500;7.772;2024-01-15T00:51:57;-2.60;99.90
13794;DHT22;31160;49.500;7.772;2024-01-15T00:54:24;-2.70;99.90
13794;DHT22;31160;49.500;7.772;2024-01-15T00:56:52;-2.50;99.90
13794;DHT22;31160;49.500;7.772;2024-01-15T00:59:19;-2.70;99.90
13794;DHT22;31160;49.500;7.772;2024-01-15T01:01:47;-2.60;99.90
13794;DHT22;31160;49.500;7.772;2024-01-15T01:04:14;-2.50;99.90
13794;DHT22;31160;49.500;7.772;2024-01-15T01:06:42;-2.50;99.90
13794;DHT22;31160;49.500;7.772;2024-01-15T01:09:10;-2.50;99.90
13794;DHT22;31160;49.500;7.772;2024-01-15T01:11:38;-2.40;99.90
13794;DHT22;31160;49.500;7.772;2024-01-15T01:14:06;-2.40;99.90
13794;DHT22;31160;49.500;7.772;2024-01-15T01:16:34;-2.30;99.90
13794;DHT22;31160;49.500;7.772;2024-01-15T01:19:06;-2.30;99.90
13794;DHT22;31160;49.500;7.772;2024-01-15T01:21:35;-2.30;99.90
13794;DHT22;31160;49.500;7.772;2024-01-15T01:24:02;-2.20;99.90
13794;DHT22;31160;49.500;7.772;2024-01-15T01:26:31;-2.20;99.90
13794;DHT22;31160;49.500;7.772;2024-01-15T01:28:58;-2.10;99.90
13794;DHT22;31160;49.500;7.772;2024-01-15T01:31:26;-2.10;99.90
13794;DHT22;31160;49.500;7.772;2024-01-15T01:33:53;-2.20;99.90
13794;DHT22;31160;49.500;7.772;2024-01-15T01:36:21;-2.30;99.90
13794;DHT22;31160;49.500;7.772;2024-01-15T01:38:49;-2.30;99.90
13794;DHT22;31160;49.500;7.772;2024-01-15T01:41:16;-2.30;99.90
13794;DHT22;31160;49.500;7.772;2024-01-15T01:43:44;-2.30;99.90
13794;DHT22;31160;49.500;7.772;2024-01-15T01:46:11;-2.10;99.90
13794;DHT22;31160;49.500;7.772;2024-01-15T01:48:39;-2.00;99.90
13794;DHT22;31160;49.500;7.772;2024-01-15T01:51:08;-2.00;99.90
13794;DHT22;31160;49.500;7.772;2024-01-15T01:53:36;-2.00;99.90
13794;DHT22;31160;49.500;7.772;2024-01-15T01:56:06;-2.20;99.90
13794;DHT22;31160;49.500;7.772;2024-01-15T01:58:34;-2.20;99.90
13794;DHT22;31160;49.500;7.772;2024-01-15T02:01:02;-2.30;99.90
13794;DHT22;31160;49.500;7.772;2024-01-15T02:03:30;-2.30;99.90
13794;DHT22;31160;49.500;7.772;2024-01-15T02:05:59;-2.30;99.90
13794;DHT22;31160;49.500;7.772;2024-01-15T02:08:27;-2.30;99.90
13794;DHT22;31160;49.500;7.772;2024-01-15T02:10:55;-2.30;99.90
13794;DHT22;31160;49.500;7.772;2024-01-15T02:13:22;-2.20;99.90
13794;DHT22;31160;49.500;7.772;2024-01-15T02:15:49;-2.50;99.90
13794;DHT22;31160;49.500;7.772;2024-01-15T02:18:17;-2.50;99.90
13794;DHT22;31160;49.500;7.772;2024-01-15T02:20:45;-2.60;99.90
13794;DHT22;31160;49.500;7.772;2024-01-15T02:23:14;-2.60;99.90
13794;DHT22;31160;49.500;7.772;2024-01-15T02:25:47;-2.50;99.90
13794;DHT22;31160;49.500;7.772;2024-01-15T02:28:16;-2.30;99.90
13794;DHT22;31160;49.500;7.772;2024-01-15T02:30:44;-2.20;99.90
13794;DHT22;31160;49.500;7.772;2024-01-15T02:33:13;-2.40;99.90
13794;DHT22;31160;49.500;7.772;2024-01-15T02:35:41;-2.20;99.90
13794;DHT22;31160;49.500;7.772;2024-01-15T02:38:08;-2.10;99.90
13794;DHT22;31160;49.500;7.772;2024-01-15T02:40:37;-2.10;99.90
13794;DHT22;31160;49.500;7.772;2024-01-15T02:43:05;-2.00;99.90
13794;DHT22;31160;49.500;7.772;2024-01-15T02:45:32;-2.00;99.90
13794;DHT22;31160;49.500;7.772;2024-01-15T02:48:00;-2.00;99.90
13794;DHT22;31160;49.500;7.772;2024-01-15T02:50:27;-2.00;99.90
13794;DHT22;31160;49.500;7.772;2024-01-15T02:52:55;-2.10;99.90
13794;DHT22;31160;49.500;7.772;2024-01-15T02:55:22;-2.00;99.90
13794;DHT22;31160;49.500;7.772;2024-01-15T02:57:51;-1.80;99.90
13794;DHT22;31160;49.500;7.772;2024-01-15T03:00:19;-2.00;99.90
13794;DHT22;31160;49.500;7.772;2024-01-15T03:02:49;-2.20;99.90
13794;DHT22;31160;49.500;7.772;2024-01-15T03:05:17;-2.10;99.90
13794;DHT22;31160;49.500;7.772;2024-01-15T03:07:44;-1.90;99.90
13794;DHT22;31160;49.500;7.772;2024-01-15T03:10:11;-1.90;99.90
13794;DHT22;31160;49.500;7.772;2024-01-15T03:12:37;-2.00;99.90
13794;DHT22;31160;49.500;7.772;2024-01-15T03:15:05;-2.10;99.90
13794;DHT22;31160;49.500;7.772;2024-01-15T03:17:31;-2.10;99.90
13794;DHT22;31160;49.500;7.772;2024-01-15T03:19:58;-2.30;99.90
13794;DHT22;31160;49.500;7.772;2024-01-15T03:22:25;-2.50;99.90
13794;DHT22;31160;49.500;7.772;2024-01-15T03:24:53;-2.30;99.90
13794;DHT22;31160;49.500;7.772;2024-01-15T03:27:19;-2.30;99.90
13794;DHT22;31160;49.500;7.772;2024-01-15T03:29:46;-2.20;99.90
13794;DHT22;31160;49.500;7.772;2024-01-15T03:32:13;-2.10;99.90
13794;DHT22;31160;49.500;7.772;2024-01-15T03:34:40;-2.20;99.90
13794;DHT22;31160;49.500;7.772;2024-01-15T03:37:07;-2.10;99.90
13794;DHT22;31160;49.500;7.772;2024-01-15T03:39:34;-2.00;99.90
13794;DHT22;31160;49.500;7.772;2024-01-15T03:42:01;-1.90;99.90
13794;DHT22;31160;49.500;7.772;2024-01-15T03:44:28;-1.80;99.90
13794;DHT22;31160;49.500;7.772;2024-01-15T03:46:55;-1.80;99.90
13794;DHT22;31160;49.500;7.772;2024-01-15T03:49:21;-1.90;99.90
13794;DHT22;31160;49.500;7.772;2024-01-15T03:51:48;-2.00;99.90
13794;DHT22;31160;49.500;7.772;2024-01-15T03:54:15;-1.80;99.90
13794;DHT22;31160;49.500;7.772;2024-01-15T03:56:46;-2.10;99.90
13794;DHT22;31160;49.500;7.772;2024-01-15T03:59:13;-2.10;99.90
13794;DHT22;31160;49.500;7.772;2024-01-15T04:01:39;-1.90;99.90
13794;DHT22;31160;49.500;7.772;2024-01-15T04:04:06;-1.70;99.90
13794;DHT22;31160;49.500;7.772;2024-01-15T04:06:33;-1.70;99.90
13794;DHT22;31160;49.500;7.772;2024-01-15T04:09:00;-1.60;99.90
13794;DHT22;31160;49.500;7.772;2024-01-15T04:11:27;-1.80;99.90
13794;DHT22;31160;49.500;7.772;2024-01-15T04:13:54;-1.80;99.90
13794;DHT22;31160;49.500;7.772;2024-01-15T04:16:20;-1.80;99.90
13794;DHT22;31160;49.500;7.772;2024-01-15T04:18:47;-1.70;99.90
13794;DHT22;31160;49.500;7.772;2024-01-15T04:21:14;-1.60;99.90
13794;DHT22;31160;49.500;7.772;2024-01-15T04:23:41;-1.50;99.90
13794;DHT22;31160;49.500;7.772;2024-01-15T04:26:07;-1.50;99.90
13794;DHT22;31160;49.500;7.772;2024-01-15T04:28:34;-1.60;99.90
13794;DHT22;31160;49.500;7.772;2024-01-15T04:31:01;-1.70;99.90
13794;DHT22;31160;49.500;7.772;2024-01-15T04:33:27;-1.60;99.90
13794;DHT22;31160;49.500;7.772;2024-01-15T04:35:55;-1.60;99.90
13794;DHT22;31160;49.500;7.772;2024-01-15T04:38:21;-1.50;99.90
13794;DHT22;31160;49.500;7.772;2024-01-15T04:40:48;-1.50;99.90
13794;DHT22;31160;49.500;7.772;2024-01-15T04:43:15;-1.50;99.90
13794;DHT22;31160;49.500;7.772;2024-01-15T04:45:41;-1.60;99.90
13794;DHT22;31160;49.500;7.772;2024-01-15T04:48:08;-1.60;99.90
13794;DHT22;31160;49.500;7.772;2024-01-15T04:50:35;-1.50;99.90
13794;DHT22;31160;49.500;7.772;2024-01-15T04:53:02;-1.50;99.90
13794;DHT22;31160;49.500;7.772;2024-01-15T04:55:29;-1.60;99.90
13794;DHT22;31160;49.500;7.772;2024-01-15T04:57:55;-1.40;99.90
13794;DHT22;31160;49.500;7.772;2024-01-15T05:00:22;-1.50;99.90
13794;DHT22;31160;49.500;7.772;2024-01-15T05:02:49;-1.70;99.90
13794;DHT22;31160;49.500;7.772;2024-01-15T05:05:16;-1.70;99.90
13794;DHT22;31160;49.500;7.772;2024-01-15T05:07:42;-1.70;99.90
13794;DHT22;31160;49.500;7.772;2024-01-15T05:10:09;-1.70;99.90
13794;DHT22;31160;49.500;7.772;2024-01-15T05:12:36;-1.60;99.90
13794;DHT22;31160;49.500;7.772;2024-01-15T05:15:03;-1.70;99.90
13794;DHT22;31160;49.500;7.772;2024-01-15T05:17:30;-1.60;99.90
13794;DHT22;31160;49.500;7.772;2024-01-15T05:19:57;-1.50;99.90
13794;DHT22;31160;49.500;7.772;2024-01-15T05:22:24;-1.50;99.90
13794;DHT22;31160;49.500;7.772;2024-01-15T05:24:52;-1.70;99.90
13794;DHT22;31160;49.500;7.772;2024-01-15T05:27:18;-1.80;99.90
13794;DHT22;31160;49.500;7.772;2024-01-15T05:29:45;-1.60;99.90
13794;DHT22;31160;49.500;7.772;2024-01-15T05:32:12;-1.60;99.90
13794;DHT22;31160;49.500;7.772;2024-01-15T05:34:39;-1.50;99.90
13794;DHT22;31160;49.500;7.772;2024-01-15T05:37:05;-1.60;99.90
13794;DHT22;31160;49.500;7.772;2024-01-15T05:39:32;-1.50;99.90
13794;DHT22;31160;49.500;7.772;2024-01-15T05:41:59;-1.50;99.90
13794;DHT22;31160;49.500;7.772;2024-01-15T05:44:26;-1.40;99.90
13794;DHT22;31160;49.500;7.772;2024-01-15T05:46:53;-1.30;99.90
13794;DHT22;31160;49.500;7.772;2024-01-15T05:49:20;-1.40;99.90
13794;DHT22;31160;49.500;7.772;2024-01-15T05:51:47;-1.30;99.90
13794;DHT22;31160;49.500;7.772;2024-01-15T05:54:14;-1.20;99.90
13794;DHT22;31160;49.500;7.772;2024-01-15T05:56:40;-1.30;99.90
13794;DHT22;31160;49.500;7.772;2024-01-15T05:59:07;-1.20;99.90
13794;DHT22;31160;49.500;7.772;2024-01-15T06:01:34;-1.30;99.90
13794;DHT22;31160;49.500;7.772;2024-01-15T06:04:01;-1.20;99.90
13794;DHT22;31160;49.500;7.772;2024-01-15T06:06:28;-1.10;99.90
13794;DHT22;31160;49.500;7.772;2024-01-15T06:08:56;-1.00;99.90
13794;DHT22;31160;49.500;7.772;2024-01-15T06:11:30;-1.10;99.90
13794;DHT22;31160;49.500;7.772;2024-01-15T06:13:57;-1.30;99.90
13794;DHT22;31160;49.500;7.772;2024-01-15T06:16:24;-1.20;99.90
13794;DHT22;31160;49.500;7.772;2024-01-15T06:18:50;-1.20;99.90
13794;DHT22;31160;49.500;7.772;2024-01-15T06:21:17;-1.30;99.90
13794;DHT22;31160;49.500;7.772;2024-01-15T06:23:44;-1.20;99.90
13794;DHT22;31160;49.500;7.772;2024-01-15T06:26:14;-1.30;99.90
13794;DHT22;31160;49.500;7.772;2024-01-15T06:28:41;-1.10;99.90
13794;DHT22;31160;49.500;7.772;2024-01-15T06:31:08;-1.10;99.90
13794;DHT22;31160;49.500;7.772;2024-01-15T06:33:34;-1.00;99.90
13794;DHT22;31160;49.500;7.772;2024-01-15T06:36:01;-0.90;99.90
13794;DHT22;31160;49.500;7.772;2024-01-15T06:38:28;-0.90;99.90
13794;DHT22;31160;49.500;7.772;2024-01-15T06:40:55;-0.90;99.90
13794;DHT22;31160;49.500;7.772;2024-01-15T06:43:22;-0.80;99.90
13794;DHT22;31160;49.500;7.772;2024-01-15T06:45:48;-0.80;99.90
13794;DHT22;31160;49.500;7.772;2024-01-15T06:48:15;-0.80;99.90
13794;DHT22;31160;49.500;7.772;2024-01-15T06:50:43;-0.70;99.90
13794;DHT22;31160;49.500;7.772;2024-01-15T06:53:10;-0.70;99.90
13794;DHT22;31160;49.500;7.772;2024-01-15T06:55:38;-0.70;99.90
13794;DHT22;31160;49.500;7.772;2024-01-15T06:58:05;-0.70;99.90
13794;DHT22;31160;49.500;7.772;2024-01-15T07:00:32;-0.70;99.90
13794;DHT22;31160;49.500;7.772;2024-01-15T07:02:59;-0.80;99.90
13794;DHT22;31160;49.500;7.772;2024-01-15T07:05:26;-0.90;99.90
13794;DHT22;31160;49.500;7.772;2024-01-15T07:07:53;-0.70;99.90
13794;DHT22;31160;49.500;7.772;2024-01-15T07:10:19;-0.70;99.90
13794;DHT22;31160;49.500;7.772;2024-01-15T07:12:46;-0.60;99.90
13794;DHT22;31160;49.500;7.772;2024-01-15T07:15:13;-0.70;99.90
13794;DHT22;31160;49.500;7.772;2024-01-15T07:17:41;-0.80;99.90
13794;DHT22;31160;49.500;7.772;2024-01-15T07:20:08;-0.70;99.90
13794;DHT22;31160;49.500;7.772;2024-01-15T07:22:36;-0.70;99.90
13794;DHT22;31160;49.500;7.772;2024-01-15T07:25:04;-0.70;99.90
13794;DHT22;31160;49.500;7.772;2024-01-15T07:27:34;-0.60;99.90
13794;DHT22;31160;49.500;7.772;2024-01-15T07:30:00;-0.60;99.90
13794;DHT22;31160;49.500;7.772;2024-01-15T07:32:29;-0.60;99.90
13794;DHT22;31160;49.500;7.772;2024-01-15T07:34:56;-0.60;99.90
13794;DHT22;31160;49.500;7.772;2024-01-15T07:37:23;-0.60;99.90
13794;DHT22;31160;49.500;7.772;2024-01-15T07:39:50;-0.50;99.90
13794;DHT22;31160;49.500;7.772;2024-01-15T07:42:16;-0.50;99.90
13794;DHT22;31160;49.500;7.772;2024-01-15T07:44:43;-0.50;99.90
13794;DHT22;31160;49.500;7.772;2024-01-15T07:47:11;-0.40;99.90
13794;DHT22;31160;49.500;7.772;2024-01-15T07:49:38;-0.50;99.90
13794;DHT22;31160;49.500;7.772;2024-01-15T07:52:05;-0.50;99.90
13794;DHT22;31160;49.500;7.772;2024-01-15T07:54:32;-0.40;99.90
13794;DHT22;31160;49.500;7.772;2024-01-15T07:57:00;-0.40;99.90
13794;DHT22;31160;49.500;7.772;2024-01-15T07:59:29;-0.40;99.90
13794;DHT22;31160;49.500;7.772;2024-01-15T08:01:56;-0.40;99.90
13794;DHT22;31160;49.500;7.772;2024-01-15T08:04:22;-0.30;99.90
13794;DHT22;31160;49.500;7.772;2024-01-15T08:06:49;-0.30;99.90
13794;DHT22;31160;49.500;7.772;2024-01-15T08:09:17;-0.20;99.90
13794;DHT22;31160;49.500;7.772;2024-01-15T08:11:44;-0.20;99.90
13794;DHT22;31160;49.500;7.772;2024-01-15T08:14:11;-0.20;99.90
13794;DHT22;31160;49.500;7.772;2024-01-15T08:16:38;-0.20;99.90
13794;DHT22;31160;49.500;7.772;2024-01-15T08:19:05;-0.30;99.90
13794;DHT22;31160;49.500;7.772;2024-01-15T08:21:32;-0.20;99.90
13794;DHT22;31160;49.500;7.772;2024-01-15T08:24:00;-0.20;99.90
13794;DHT22;31160;49.500;7.772;2024-01-15T08:26:28;0.00;99.90
13794;DHT22;31160;49.500;7.772;2024-01-15T08:28:55;-0.10;99.90
13794;DHT22;31160;49.500;7.772;2024-01-15T08:31:22;-0.10;99.90
13794;DHT22;31160;49.500;7.772;2024-01-15T08:33:49;-0.20;99.90
13794;DHT22;31160;49.500;7.772;2024-01-15T08:36:16;-0.10;99.90
13794;DHT22;31160;49.500;7.772;2024-01-15T08:38:43;-0.10;99.90
13794;DHT22;31160;49.500;7.772;2024-01-15T08:41:10;-0.10;99.90
13794;DHT22;31160;49.500;7.772;2024-01-15T08:43:37;-0.10;99.90
13794;DHT22;31160;49.500;7.772;2024-01-15T08:46:03;-0.20;99.90
13794;DHT22;31160;49.500;7.772;2024-01-15T08:48:30;-0.20;99.90
13794;DHT22;31160;49.500;7.772;2024-01-15T08:50:57;-0.10;99.90
13794;DHT22;31160;49.500;7.772;2024-01-15T08:53:24;0.00;99.90
13794;DHT22;31160;49.500;7.772;2024-01-15T08:55:51;0.00;99.90
13794;DHT22;31160;49.500;7.772;2024-01-15T08:58:17;0.10;99.90
13794;DHT22;31160;49.500;7.772;2024-01-15T09:00:44;0.10;99.90
13794;DHT22;31160;49.500;7.772;2024-01-15T09:03:11;0.20;99.90
13794;DHT22;31160;49.500;7.772;2024-01-15T09:05:38;0.10;99.90
13794;DHT22;31160;49.500;7.772;2024-01-15T09:08:05;0.10;99.90
13794;DHT22;31160;49.500;7.772;2024-01-15T09:10:32;0.10;99.90
13794;DHT22;31160;49.500;7.772;2024-01-15T09:12:59;0.10;99.90
13794;DHT22;31160;49.500;7.772;2024-01-15T09:15:27;0.20;99.90
13794;DHT22;31160;49.500;7.772;2024-01-15T09:17:54;0.10;99.90
13794;DHT22;31160;49.500;7.772;2024-01-15T09:20:21;0.20;99.90
13794;DHT22;31160;49.500;7.772;2024-01-15T09:22:48;0.30;99.90
13794;DHT22;31160;49.500;7.772;2024-01-15T09:25:15;0.30;99.90
13794;DHT22;31160;49.500;7.772;2024-01-15T09:27:41;0.30;99.90
13794;DHT22;31160;49.500;7.772;2024-01-15T09:30:09;0.30;99.90
13794;DHT22;31160;49.500;7.772;2024-01-15T09:32:36;0.40;99.90
13794;DHT22;31160;49.500;7.772;2024-01-15T09:35:03;0.40;99.90
13794;DHT22;31160;49.500;7.772;2024-01-15T09:37:30;0.50;99.90
13794;DHT22;31160;49.500;7.772;2024-01-15T09:40:14;0.50;99.90
13794;DHT22;31160;49.500;7.772;2024-01-15T09:42:42;0.40;99.90
13794;DHT22;31160;49.500;7.772;2024-01-15T09:45:10;0.40;99.90
13794;DHT22;31160;49.500;7.772;2024-01-15T09:47:38;0.50;99.90
13794;DHT22;31160;49.500;7.772;2024-01-15T09:50:10;0.40;99.90
13794;DHT22;31160;49.500;7.772;2024-01-15T09:52:37;0.50;99.90
13794;DHT22;31160;49.500;7.772;2024-01-15T09:55:05;0.60;99.90
13794;DHT22;31160;49.500;7.772;2024-01-15T09:57:32;0.50;99.90
13794;DHT22;31160;49.500;7.772;2024-01-15T10:00:02;0.50;99.90
13794;DHT22;31160;49.500;7.772;2024-01-15T10:02:31;0.50;99.90
13794;DHT22;31160;49.500;7.772;2024-01-15T10:04:58;0.50;99.90
13794;DHT22;31160;49.500;7.772;2024-01-15T10:07:26;0.60;99.90
13794;DHT22;31160;49.500;7.772;2024-01-15T10:09:53;0.80;99.90
13794;DHT22;31160;49.500;7.772;2024-01-15T10:12:21;0.80;99.90
13794;DHT22;31160;49.500;7.772;2024-01-15T10:14:50;0.90;99.90
13794;DHT22;31160;49.500;7.772;2024-01-15T10:17:16;0.90;99.90
13794;DHT22;31160;49.500;7.772;2024-01-15T10:19:47;0.90;99.90
13794;DHT22;31160;49.500;7.772;2024-01-15T10:22:16;0.80;99.90
13794;DHT22;31160;49.500;7.772;2024-01-15T10:24:45;0.90;99.90
13794;DHT22;31160;49.500;7.772;2024-01-15T10:27:13;0.90;99.90
13794;DHT22;31160;49.500;7.772;2024-01-15T10:29:42;0.70;99.90
13794;DHT22;31160;49.500;7.772;2024-01-15T10:32:09;0.70;99.90
13794;DHT22;31160;49.500;7.772;2024-01-15T10:34:42;0.80;99.90
13794;DHT22;31160;49.500;7.772;2024-01-15T10:37:10;0.80;99.90
13794;DHT22;31160;49.500;7.772;2024-01-15T10:39:37;0.90;99.90
13794;DHT22;31160;49.500;7.772;2024-01-15T10:42:05;0.90;99.90
13794;DHT22;31160;49.500;7.772;2024-01-15T10:44:33;0.90;99.90
13794;DHT22;31160;49.500;7.772;2024-01-15T10:47:01;0.80;99.90
13794;DHT22;31160;49.500;7.772;2024-01-15T10:49:28;0.80;99.90
13794;DHT22;31160;49.500;7.772;2024-01-15T10:52:01;0.70;99.90
13794;DHT22;31160;49.500;7.772;2024-01-15T10:54:29;0.80;99.90
13794;DHT22;31160;49.500;7.772;2024-01-15T10:56:56;0.80;99.90
13794;DHT22;31160;49.500;7.772;2024-01-15T10:59:23;0.90;99.90
13794;DHT22;31160;49.500;7.772;2024-01-15T11:01:51;0.80;99.90
13794;DHT22;31160;49.500;7.772;2024-01-15T11:04:22;0.90;99.90
13794;DHT22;31160;49.500;7.772;2024-01-15T11:06:52;0.90;99.90
13794;DHT22;31160;49.500;7.772;2024-01-15T11:09:24;0.80;99.90
13794;DHT22;31160;49.500;7.772;2024-01-15T11:11:53;0.80;99.90
13794;DHT22;31160;49.500;7.772;2024-01-15T11:14:40;0.80;99.90
13794;DHT22;31160;49.500;7.772;2024-01-15T11:17:07;0.70;99.90
13794;DHT22;31160;49.500;7.772;2024-01-15T11:19:37;0.60;99.90
13794;DHT22;31160;49.500;7.772;2024-01-15T11:24:57;0.70;99.90
13794;DHT22;31160;49.500;7.772;2024-01-15T11:27:40;0.70;99.90
13794;DHT22;31160;49.500;7.772;2024-01-15T11:30:09;0.80;99.90
13794;DHT22;31160;49.500;7.772;2024-01-15T11:32:40;0.80;99.90
13794;DHT22;31160;49.500;7.772;2024-01-15T11:35:10;0.80;99.90
13794;DHT22;31160;49.500;7.772;2024-01-15T11:40:37;0.90;99.90
13794;DHT22;31160;49.500;7.772;2024-01-15T11:43:05;0.90;99.90
13794;DHT22;31160;49.500;7.772;2024-01-15T11:45:33;0.70;99.90
13794;DHT22;31160;49.500;7.772;2024-01-15T11:48:14;0.80;99.90
13794;DHT22;31160;49.500;7.772;2024-01-15T11:50:44;0.80;99.90
13794;DHT22;31160;49.500;7.772;2024-01-15T11:53:32;0.90;99.90
13794;DHT22;31160;49.500;7.772;2024-01-15T11:56:02;0.90;99.90
13794;DHT22;31160;49.500;7.772;2024-01-15T11:58:30;0.90;99.90
13794;DHT22;31160;49.500;7.772;2024-01-15T12:00:57;0.80;99.90
13794;DHT22;31160;49.500;7.772;2024-01-15T12:03:24;0.80;99.90
13794;DHT22;31160;49.500;7.772;2024-01-15T12:05:54;0.80;99.90
13794;DHT22;31160;49.500;7.772;2024-01-15T12:08:23;0.80;99.90
13794;DHT22;31160;49.500;7.772;2024-01-15T12:10:50;1.00;99.90
13794;DHT22;31160;49.500;7.772;2024-01-15T12:13:17;1.20;99.90
13794;DHT22;31160;49.500;7.772;2024-01-15T12:15:46;1.30;99.90
13794;DHT22;31160;49.500;7.772;2024-01-15T12:18:14;1.30;99.90
13794;DHT22;31160;49.500;7.772;2024-01-15T12:20:43;1.30;99.90
13794;DHT22;31160;49.500;7.772;2024-01-15T12:23:11;1.00;99.90
13794;DHT22;31160;49.500;7.772;2024-01-15T12:25:38;0.80;99.90
13794;DHT22;31160;49.500;7.772;2024-01-15T12:28:05;0.90;99.90
13794;DHT22;31160;49.500;7.772;2024-01-15T12:30:33;0.80;99.90
13794;DHT22;31160;49.500;7.772;2024-01-15T12:33:05;0.80;99.90
13794;DHT22;31160;49.500;7.772;2024-01-15T12:35:34;1.10;99.90
13794;DHT22;31160;49.500;7.772;2024-01-15T12:38:01;1.30;99.90
13794;DHT22;31160;49.500;7.772;2024-01-15T12:40:32;1.30;99.90
13794;DHT22;31160;49.500;7.772;2024-01-15T12:43:00;1.30;99.90
13794;DHT22;31160;49.500;7.772;2024-01-15T12:45:27;1.30;99.90
13794;DHT22;31160;49.500;7.772;2024-01-15T12:47:54;1.30;99.90
13794;DHT22;31160;49.500;7.772;2024-01-15T12:50:24;1.30;99.90
13794;DHT22;31160;49.500;7.772;2024-01-15T12:52:51;1.50;99.90
13794;DHT22;31160;49.500;7.772;2024-01-15T12:55:18;1.50;99.90
13794;DHT22;31160;49.500;7.772;2024-01-15T12:57:45;1.60;99.90
13794;DHT22;31160;49.500;7.772;2024-01-15T13:00:12;1.60;99.90
13794;DHT22;31160;49.500;7.772;2024-01-15T13:02:43;1.40;99.90
13794;DHT22;31160;49.500;7.772;2024-01-15T13:05:11;1.60;99.90
13794;DHT22;31160;49.500;7.772;2024-01-15T13:07:40;1.70;99.90
13794;DHT22;31160;49.500;7.772;2024-01-15T13:10:07;1.60;99.90
13794;DHT22;31160;49.500;7.772;2024-01-15T13:12:36;1.70;99.90
13794;DHT22;31160;49.500;7.772;2024-01-15T13:15:03;1.80;99.90
13794;DHT22;31160;49.500;7.772;2024-01-15T13:17:30;1.70;99.90
13794;DHT22;31160;49.500;7.772;2024-01-15T13:19:57;1.60;99.90
13794;DHT22;31160;49.500;7.772;2024-01-15T13:22:25;1.70;99.90
13794;DHT22;31160;49.500;7.772;2024-01-15T13:24:59;1.50;99.90
13794;DHT22;31160;49.500;7.772;2024-01-15T13:27:26;1.60;99.90
13794;DHT22;31160;49.500;7.772;2024-01-15T13:29:53;1.60;99.90
13794;DHT22;31160;49.500;7.772;2024-01-15T13:32:28;1.50;99.90
13794;DHT22;31160;49.500;7.772;2024-01-15T13:34:56;1.60;99.90
13794;DHT22;31160;49.500;7.772;2024-01-15T13:37:24;1.50;99.90
13794;DHT22;31160;49.500;7.772;2024-01-15T13:39:52;1.60;99.90
13794;DHT22;31160;49.500;7.772;2024-01-15T13:42:21;1.80;99.90
13794;DHT22;31160;49.500;7.772;2024-01-15T13:44:51;2.00;99.90
13794;DHT22;31160;49.500;7.772;2024-01-15T13:47:18;1.80;99.90
13794;DHT22;31160;49.500;7.772;2024-01-15T13:49:45;1.80;99.90
13794;DHT22;31160;49.500;7.772;2024-01-15T13:52:12;1.80;99.90
13794;DHT22;31160;49.500;7.772;2024-01-15T13:54:40;1.50;99.90
13794;DHT22;31160;49.500;7.772;2024-01-15T13:57:16;1.70;99.90
13794;DHT22;31160;49.500;7.772;2024-01-15T13:59:44;1.50;99.90
13794;DHT22;31160;49.500;7.772;2024-01-15T14:02:11;1.50;99.90
13794;DHT22;31160;49.500;7.772;2024-01-15T14:04:39;1.60;99.90
13794;DHT22;31160;49.500;7.772;2024-01-15T14:07:07;1.80;99.90
13794;DHT22;31160;49.500;7.772;2024-01-15T14:09:34;1.80;99.90
13794;DHT22;31160;49.500;7.772;2024-01-15T14:12:01;1.90;99.90
13794;DHT22;31160;49.500;7.772;2024-01-15T14:14:29;1.70;99.90
13794;DHT22;31160;49.500;7.772;2024-01-15T14:16:56;1.60;99.90
13794;DHT22;31160;49.500;7.772;2024-01-15T14:19:23;1.50;99.90
13794;DHT22;31160;49.500;7.772;2024-01-15T14:21:50;1.40;99.90
13794;DHT22;31160;49.500;7.772;2024-01-15T14:24:17;1.40;99.90
13794;DHT22;31160;49.500;7.772;2024-01-15T14:26:45;1.40;99.90
13794;DHT22;31160;49.500;7.772;2024-01-15T14:29:12;1.40;99.90
13794;DHT22;31160;49.500;7.772;2024-01-15T14:31:39;1.50;99.90
13794;DHT22;31160;49.500;7.772;2024-01-15T14:34:06;1.60;99.90
13794;DHT22;31160;49.500;7.772;2024-01-15T14:36:34;1.60;99.90
13794;DHT22;31160;49.500;7.772;2024-01-15T14:39:01;1.70;99.90
13794;DHT22;31160;49.500;7.772;2024-01-15T14:41:29;1.70;99.90
13794;DHT22;31160;49.500;7.772;2024-01-15T14:43:56;1.50;99.90
13794;DHT22;31160;49.500;7.772;2024-01-15T14:46:23;1.50;99.90
13794;DHT22;31160;49.500;7.772;2024-01-15T14:48:50;1.50;99.90
13794;DHT22;31160;49.500;7.772;2024-01-15T14:51:17;1.50;99.90
13794;DHT22;31160;49.500;7.772;2024-01-15T14:53:44;1.50;99.90
13794;DHT22;31160;49.500;7.772;2024-01-15T14:56:11;1.50;99.90
13794;DHT22;31160;49.500;7.772;2024-01-15T14:58:37;1.40;99.90
13794;DHT22;31160;49.500;7.772;2024-01-15T15:01:04;1.50;99.90
13794;DHT22;31160;49.500;7.772;2024-01-15T15:03:31;1.50;99.90
13794;DHT22;31160;49.500;7.772;2024-01-15T15:05:59;1.50;99.90
13794;DHT22;31160;49.500;7.772;2024-01-15T15:08:26;1.30;99.90
13794;DHT22;31160;49.500;7.772;2024-01-15T15:10:53;1.30;99.90
13794;DHT22;31160;49.500;7.772;2024-01-15T15:13:20;1.40;99.90
13794;DHT22;31160;49.500;7.772;2024-01-15T15:16:03;1.40;99.90
13794;DHT22;31160;49.500;7.772;2024-01-15T15:18:30;1.40;99.90
13794;DHT22;31160;49.500;7.772;2024-01-15T15:20:57;1.50;99.90
13794;DHT22;31160;49.500;7.772;2024-01-15T15:23:25;1.50;99.90
13794;DHT22;31160;49.500;7.772;2024-01-15T15:25:51;1.40;99.90
13794;DHT22;31160;49.500;7.772;2024-01-15T15:28:18;1.40;99.90
13794;DHT22;31160;49.500;7.772;2024-01-15T15:30:45;1.40;99.90
13794;DHT22;31160;49.500;7.772;2024-01-15T15:33:12;1.40;99.90
13794;DHT22;31160;49.500;7.772;2024-01-15T15:35:39;1.50;99.90
13794;DHT22;31160;49.500;7.772;2024-01-15T15:38:06;1.50;99.90
13794;DHT22;31160;49.500;7.772;2024-01-15T15:40:33;1.50;99.90
13794;DHT22;31160;49.500;7.772;2024-01-15T15:42:59;1.40;99.90
13794;DHT22;31160;49.500;7.772;2024-01-15T15:45:26;1.40;99.90